createdAt,value
2023-05-06T00:00:39.702Z,16.96
2023-05-06T00:03:06.481Z,17.23
2023-05-06T00:05:33.216Z,17.21
2023-05-06T00:07:59.934Z,16.99
2023-05-06T00:10:27.065Z,17.11
2023-05-06T00:12:53.750Z,17.05
2023-05-06T00:15:20.441Z,16.90
2023-05-06T00:17:47.199Z,16.78
2023-05-06T00:20:14.970Z,16.69
2023-05-06T00:22:41.704Z,16.61
2023-05-06T00:25:09.053Z,16.54
2023-05-06T00:27:35.813Z,16.53
2023-05-06T00:30:02.599Z,16.60
2023-05-06T00:32:31.034Z,16.61
2023-05-06T00:34:57.768Z,16.72
2023-05-06T00:37:24.460Z,16.74
2023-05-06T00:39:51.106Z,16.76
2023-05-06T00:42:17.902Z,16.73
2023-05-06T00:44:44.650Z,16.53
2023-05-06T00:47:11.777Z,16.56
2023-05-06T00:49:38.641Z,16.68
2023-05-06T00:52:05.727Z,16.80
2023-05-06T00:54:32.514Z,16.67
2023-05-06T00:56:59.365Z,16.76
2023-05-06T00:59:26.088Z,16.82
2023-05-06T01:01:53.891Z,16.68
2023-05-06T01:04:22.476Z,16.60
2023-05-06T01:06:59.212Z,16.38
2023-05-06T01:09:31.914Z,16.36
2023-05-06T01:12:06.890Z,16.22
2023-05-06T01:14:49.074Z,16.74
2023-05-06T01:17:18.760Z,16.67
2023-05-06T01:19:49.075Z,16.23
2023-05-06T01:22:16.684Z,16.34
2023-05-06T01:24:45.159Z,16.59
2023-05-06T01:27:13.701Z,16.44
2023-05-06T01:29:45.355Z,16.33
2023-05-06T01:32:45.126Z,16.36
2023-05-06T01:35:32.735Z,16.22
2023-05-06T01:38:27.563Z,16.40
2023-05-06T01:40:57.805Z,16.15
2023-05-06T01:43:28.289Z,16.16
2023-05-06T01:45:56.190Z,16.18
2023-05-06T01:48:28.900Z,16.21
2023-05-06T01:50:55.763Z,16.15
2023-05-06T01:53:22.462Z,16.12
2023-05-06T01:55:49.256Z,16.11
2023-05-06T01:58:16.946Z,16.09
2023-05-06T02:00:43.635Z,16.10
2023-05-06T02:03:11.929Z,16.10
2023-05-06T02:05:38.813Z,16.03
2023-05-06T02:08:05.754Z,16.52
2023-05-06T02:10:32.708Z,16.14
2023-05-06T02:13:04.601Z,16.20
2023-05-06T02:15:31.444Z,16.15
2023-05-06T02:17:59.954Z,16.43
2023-05-06T02:20:26.976Z,16.30
2023-05-06T02:23:13.548Z,16.02
2023-05-06T02:25:40.263Z,16.00
2023-05-06T02:28:08.195Z,16.22
2023-05-06T02:30:35.307Z,16.14
2023-05-06T02:33:02.762Z,16.14
2023-05-06T02:35:29.429Z,16.05
2023-05-06T02:37:56.106Z,15.93
2023-05-06T02:40:22.991Z,15.83
2023-05-06T02:42:49.969Z,15.78
2023-05-06T02:45:34.983Z,15.76
2023-05-06T02:48:19.958Z,15.66
2023-05-06T02:50:46.668Z,15.53
2023-05-06T02:53:13.424Z,15.61
2023-05-06T02:55:40.294Z,15.51
2023-05-06T02:58:06.965Z,15.54
2023-05-06T03:00:33.693Z,15.77
2023-05-06T03:03:00.883Z,15.30
2023-05-06T03:05:27.631Z,15.45
2023-05-06T03:07:55.241Z,15.57
2023-05-06T03:10:21.950Z,15.59
2023-05-06T03:12:48.968Z,15.63
2023-05-06T03:15:15.662Z,15.72
2023-05-06T03:17:42.572Z,15.80
2023-05-06T03:20:10.097Z,15.87
2023-05-06T03:22:41.158Z,15.68
2023-05-06T03:25:08.930Z,15.59
2023-05-06T03:27:38.452Z,15.65
2023-05-06T03:30:12.251Z,15.61
2023-05-06T03:32:39.454Z,15.57
2023-05-06T03:35:11.510Z,15.59
2023-05-06T03:37:41.336Z,15.62
2023-05-06T03:40:09.532Z,15.73
2023-05-06T03:42:36.354Z,15.80
2023-05-06T03:45:04.998Z,15.65
2023-05-06T03:47:33.354Z,15.45
2023-05-06T03:50:01.933Z,15.41
2023-05-06T03:52:31.211Z,15.38
2023-05-06T03:54:58.722Z,15.38
2023-05-06T03:57:27.616Z,15.53
2023-05-06T03:59:54.518Z,15.43
2023-05-06T04:02:21.381Z,15.43
2023-05-06T04:04:48.368Z,15.44
2023-05-06T04:07:15.084Z,15.58
2023-05-06T04:09:41.803Z,15.57
2023-05-06T04:12:08.982Z,15.64
2023-05-06T04:14:36.809Z,15.68
2023-05-06T04:17:04.292Z,15.50
2023-05-06T04:19:32.116Z,15.49
2023-05-06T04:21:58.925Z,15.47
2023-05-06T04:24:28.523Z,15.45
2023-05-06T04:26:56.120Z,15.44
2023-05-06T04:29:23.521Z,15.36
2023-05-06T04:31:58.277Z,15.51
2023-05-06T04:34:28.069Z,15.44
2023-05-06T04:36:58.244Z,15.48
2023-05-06T04:39:32.113Z,15.51
2023-05-06T04:41:59.204Z,15.50
2023-05-06T04:44:34.099Z,15.58
2023-05-06T04:47:02.568Z,15.59
2023-05-06T04:49:29.686Z,15.62
2023-05-06T04:51:57.066Z,15.73
2023-05-06T04:54:24.934Z,15.45
2023-05-06T04:56:51.776Z,15.50
2023-05-06T04:59:19.824Z,15.62
2023-05-06T05:01:47.284Z,15.68
2023-05-06T05:04:14.081Z,15.84
2023-05-06T05:06:41.026Z,15.95
2023-05-06T05:09:08.812Z,16.03
2023-05-06T05:11:38.282Z,16.18
2023-05-06T05:14:05.316Z,16.15
2023-05-06T05:16:32.440Z,16.01
2023-05-06T05:19:03.018Z,16.28
2023-05-06T05:21:32.801Z,16.42
2023-05-06T05:23:59.788Z,16.51
2023-05-06T05:26:26.826Z,16.54
2023-05-06T05:28:55.113Z,16.58
2023-05-06T05:31:22.441Z,16.78
2023-05-06T05:33:50.236Z,16.73
2023-05-06T05:36:20.966Z,16.89
2023-05-06T05:38:50.391Z,17.06
2023-05-06T05:41:18.277Z,16.97
2023-05-06T05:43:45.829Z,16.73
2023-05-06T05:46:14.298Z,16.83
2023-05-06T05:48:43.688Z,17.00
2023-05-06T05:51:11.405Z,17.27
2023-05-06T05:53:39.068Z,17.28
2023-05-06T05:56:07.391Z,17.03
2023-05-06T05:58:34.551Z,16.96
2023-05-06T06:01:01.701Z,17.17
2023-05-06T06:03:29.196Z,17.46
2023-05-06T06:05:56.344Z,17.50
2023-05-06T06:08:26.378Z,17.52
2023-05-06T06:10:53.432Z,17.75
2023-05-06T06:13:26.599Z,17.95
2023-05-06T06:15:56.491Z,18.15
2023-05-06T06:18:24.114Z,18.32
2023-05-06T06:20:53.101Z,18.33
2023-05-06T06:23:20.986Z,18.32
2023-05-06T06:25:48.239Z,18.14
2023-05-06T06:28:15.923Z,18.38
2023-05-06T06:30:44.053Z,18.25
2023-05-06T06:33:11.600Z,18.33
2023-05-06T06:35:39.764Z,18.68
2023-05-06T06:38:06.504Z,18.77
2023-05-06T06:40:35.375Z,18.38
2023-05-06T06:43:02.219Z,18.39
2023-05-06T06:45:49.071Z,18.68
2023-05-06T06:48:16.411Z,18.68
2023-05-06T06:50:43.244Z,18.78
2023-05-06T06:53:10.799Z,18.86
2023-05-06T06:55:37.604Z,18.62
2023-05-06T06:58:04.393Z,18.55
2023-05-06T07:00:31.083Z,18.44
2023-05-06T07:02:57.831Z,18.46
2023-05-06T07:05:26.792Z,18.65
2023-05-06T07:07:54.336Z,18.67
2023-05-06T07:10:22.093Z,18.70
2023-05-06T07:12:48.855Z,18.83
2023-05-06T07:15:15.708Z,19.07
2023-05-06T07:17:42.794Z,19.11
2023-05-06T07:20:10.248Z,19.16
2023-05-06T07:22:37.072Z,18.84
2023-05-06T07:25:03.970Z,18.67
2023-05-06T07:27:30.989Z,18.59
2023-05-06T07:29:57.857Z,18.74
2023-05-06T07:32:24.743Z,18.82
2023-05-06T07:34:51.499Z,18.89
2023-05-06T07:37:18.138Z,19.14
2023-05-06T07:39:44.948Z,19.47
2023-05-06T07:42:13.149Z,19.27
2023-05-06T07:44:40.322Z,19.32
2023-05-06T07:47:07.172Z,19.49
2023-05-06T07:49:35.147Z,19.26
2023-05-06T07:52:03.445Z,19.24
2023-05-06T07:54:31.584Z,19.24
2023-05-06T07:56:58.428Z,19.20
2023-05-06T07:59:25.380Z,18.87
2023-05-06T08:01:52.524Z,18.94
2023-05-06T08:04:19.301Z,19.26
2023-05-06T08:06:46.035Z,19.50
2023-05-06T08:09:17.005Z,20.05
2023-05-06T08:11:49.974Z,20.27
2023-05-06T08:14:16.714Z,20.37
2023-05-06T08:16:43.663Z,20.44
2023-05-06T08:19:10.619Z,20.25
2023-05-06T08:21:37.401Z,20.29
2023-05-06T08:24:04.187Z,20.41
2023-05-06T08:26:30.945Z,20.41
2023-05-06T08:28:58.784Z,20.05
2023-05-06T08:31:25.562Z,20.39
2023-05-06T08:33:54.432Z,20.56
2023-05-06T08:36:22.141Z,20.39
2023-05-06T08:38:50.743Z,20.20
2023-05-06T08:41:19.435Z,20.05
2023-05-06T08:43:48.437Z,19.95
2023-05-06T08:46:15.563Z,19.80
2023-05-06T08:48:42.399Z,19.89
2023-05-06T08:51:09.700Z,20.27
2023-05-06T08:53:36.990Z,19.85
2023-05-06T08:56:08.546Z,19.89
2023-05-06T08:58:38.451Z,20.00
2023-05-06T09:01:05.446Z,20.00
2023-05-06T09:03:32.413Z,20.06
2023-05-06T09:05:59.370Z,19.73
2023-05-06T09:08:26.136Z,19.98
2023-05-06T09:10:52.926Z,19.82
2023-05-06T09:13:19.909Z,19.85
2023-05-06T09:15:49.032Z,19.95
2023-05-06T09:18:17.009Z,19.92
2023-05-06T09:20:48.779Z,19.98
2023-05-06T09:23:17.782Z,19.83
2023-05-06T09:25:46.172Z,20.35
2023-05-06T09:28:14.033Z,20.81
2023-05-06T09:30:44.968Z,20.68
2023-05-06T09:33:12.292Z,21.04
2023-05-06T09:35:41.116Z,21.36
2023-05-06T09:38:08.595Z,21.49
2023-05-06T09:40:36.799Z,21.47
2023-05-06T09:43:04.503Z,21.40
2023-05-06T09:45:31.584Z,21.28
2023-05-06T09:47:58.840Z,21.12
2023-05-06T09:50:26.360Z,21.11
2023-05-06T09:52:55.325Z,21.30
2023-05-06T09:55:23.433Z,21.40
2023-05-06T09:57:50.521Z,21.55
2023-05-06T10:00:17.561Z,21.53
2023-05-06T10:02:45.923Z,21.37
2023-05-06T10:05:14.041Z,20.88
2023-05-06T10:07:44.217Z,20.91
2023-05-06T10:10:12.112Z,21.22
2023-05-06T10:12:39.034Z,21.53
2023-05-06T10:15:06.498Z,21.25
2023-05-06T10:17:35.593Z,21.16
2023-05-06T10:20:04.636Z,20.81
2023-05-06T10:22:39.909Z,21.10
2023-05-06T10:25:39.581Z,20.93
2023-05-06T10:28:10.529Z,20.74
2023-05-06T10:30:44.995Z,20.97
2023-05-06T10:33:12.277Z,21.33
2023-05-06T10:35:42.079Z,21.18
2023-05-06T10:38:36.251Z,21.26
2023-05-06T10:41:03.848Z,21.49
2023-05-06T10:43:32.781Z,21.40
2023-05-06T10:46:06.665Z,21.59
2023-05-06T10:48:34.002Z,21.75
2023-05-06T10:51:16.411Z,21.88
2023-05-06T10:54:02.745Z,22.03
2023-05-06T10:56:34.686Z,21.17
2023-05-06T10:59:05.684Z,21.11
2023-05-06T11:01:32.519Z,20.93
2023-05-06T11:04:05.110Z,21.21
2023-05-06T11:06:33.538Z,21.30
2023-05-06T11:09:01.768Z,21.41
2023-05-06T11:11:51.753Z,21.49
2023-05-06T11:14:31.837Z,21.56
2023-05-06T11:17:01.394Z,21.43
2023-05-06T11:19:33.553Z,21.43
2023-05-06T11:22:01.921Z,21.42
2023-05-06T11:24:39.683Z,21.47
2023-05-06T11:27:07.151Z,21.37
2023-05-06T11:29:34.122Z,21.36
2023-05-06T11:32:00.929Z,21.04
2023-05-06T11:34:29.918Z,21.14
2023-05-06T11:36:58.714Z,21.08
2023-05-06T11:39:30.314Z,21.12
2023-05-06T11:42:02.285Z,21.26
2023-05-06T11:44:34.267Z,21.41
2023-05-06T11:47:04.532Z,21.45
2023-05-06T11:49:42.292Z,21.58
2023-05-06T11:52:10.943Z,21.73
2023-05-06T11:54:42.547Z,21.77
2023-05-06T11:57:09.770Z,21.76
2023-05-06T11:59:39.553Z,21.55
2023-05-06T12:02:08.857Z,21.42
2023-05-06T12:04:41.503Z,21.39
2023-05-06T12:07:10.279Z,21.59
2023-05-06T12:09:39.330Z,21.67
2023-05-06T12:12:08.329Z,21.63
2023-05-06T12:14:36.993Z,21.51
2023-05-06T12:17:04.888Z,21.64
2023-05-06T12:19:32.271Z,21.85
2023-05-06T12:22:21.903Z,21.79
2023-05-06T12:24:49.575Z,21.95
2023-05-06T12:27:35.884Z,22.01
2023-05-06T12:30:05.033Z,22.05
2023-05-06T12:32:34.583Z,22.16
2023-05-06T12:35:07.154Z,22.25
2023-05-06T12:37:34.096Z,22.28
2023-05-06T12:40:01.244Z,22.23
2023-05-06T12:42:28.579Z,22.21
2023-05-06T12:44:56.335Z,22.37
2023-05-06T12:47:26.272Z,22.13
2023-05-06T12:50:01.157Z,22.37
2023-05-06T12:52:30.103Z,22.48
2023-05-06T12:54:57.625Z,22.62
2023-05-06T12:57:24.462Z,22.59
2023-05-06T12:59:51.524Z,22.61
2023-05-06T13:02:18.301Z,22.12
2023-05-06T13:04:46.988Z,22.33
2023-05-06T13:07:13.826Z,22.44
2023-05-06T13:09:40.597Z,22.54
2023-05-06T13:12:13.111Z,22.60
2023-05-06T13:14:40.422Z,22.60
2023-05-06T13:17:08.161Z,22.69
2023-05-06T13:19:35.164Z,22.64
2023-05-06T13:22:02.207Z,22.76
2023-05-06T13:24:29.524Z,22.85
2023-05-06T13:26:57.323Z,22.85
2023-05-06T13:29:25.027Z,22.86
2023-05-06T13:31:52.542Z,22.84
2023-05-06T13:34:19.743Z,22.66
2023-05-06T13:36:49.156Z,22.78
2023-05-06T13:39:16.132Z,22.84
2023-05-06T13:41:45.689Z,22.70
2023-05-06T13:44:12.327Z,22.60
2023-05-06T13:46:39.088Z,22.61
2023-05-06T13:49:05.852Z,22.54
2023-05-06T13:51:34.442Z,22.67
2023-05-06T13:54:02.220Z,22.91
2023-05-06T13:56:28.924Z,22.88
2023-05-06T13:58:55.758Z,22.88
2023-05-06T14:01:25.564Z,22.86
2023-05-06T14:03:53.082Z,23.03
2023-05-06T14:06:20.348Z,23.03
2023-05-06T14:08:47.129Z,23.20
2023-05-06T14:11:13.806Z,23.25
2023-05-06T14:13:40.961Z,23.36
2023-05-06T14:16:08.017Z,23.29
2023-05-06T14:18:34.759Z,23.43
2023-05-06T14:21:01.605Z,23.55
2023-05-06T14:23:28.346Z,23.63
2023-05-06T14:25:55.186Z,23.69
2023-05-06T14:28:22.065Z,23.49
2023-05-06T14:30:50.760Z,23.51
2023-05-06T14:33:17.484Z,23.25
2023-05-06T14:35:45.926Z,23.46
2023-05-06T14:38:12.963Z,23.78
2023-05-06T14:40:39.817Z,23.95
2023-05-06T14:43:07.648Z,23.82
2023-05-06T14:45:34.634Z,24.34
2023-05-06T14:48:01.592Z,25.24
2023-05-06T14:50:28.604Z,25.48
2023-05-06T14:52:55.358Z,27.06
2023-05-06T14:55:22.324Z,28.11
2023-05-06T14:57:49.357Z,28.88
2023-05-06T15:00:17.199Z,29.42
2023-05-06T15:02:43.999Z,30.01
2023-05-06T15:05:12.189Z,29.94
2023-05-06T15:07:39.340Z,29.48
2023-05-06T15:10:06.370Z,29.65
2023-05-06T15:12:36.275Z,29.36
2023-05-06T15:15:04.877Z,28.13
2023-05-06T15:17:33.701Z,28.44
2023-05-06T15:20:00.731Z,29.58
2023-05-06T15:22:27.431Z,30.42
2023-05-06T15:24:54.183Z,30.36
2023-05-06T15:27:21.092Z,29.36
2023-05-06T15:29:47.927Z,29.07
2023-05-06T15:32:14.914Z,27.66
2023-05-06T15:34:41.572Z,26.85
2023-05-06T15:37:08.279Z,26.08
2023-05-06T15:39:38.541Z,25.72
2023-05-06T15:42:05.559Z,25.49
2023-05-06T15:44:33.606Z,25.06
2023-05-06T15:47:00.814Z,24.37
2023-05-06T15:52:00.559Z,23.95
2023-05-06T15:54:28.484Z,23.91
2023-05-06T15:56:56.245Z,23.66
2023-05-06T15:59:22.978Z,23.47
2023-05-06T16:04:19.461Z,23.25
2023-05-06T16:06:46.294Z,23.28
2023-05-06T16:09:13.326Z,23.29
2023-05-06T16:11:39.977Z,23.34
2023-05-06T16:14:06.660Z,23.35
2023-05-06T16:16:33.368Z,23.34
2023-05-06T16:19:00.290Z,23.38
2023-05-06T16:21:27.153Z,23.35
2023-05-06T16:23:54.244Z,23.36
2023-05-06T16:26:22.326Z,23.41
2023-05-06T16:28:51.372Z,23.48
2023-05-06T16:31:18.222Z,23.64
2023-05-06T16:33:44.940Z,23.69
2023-05-06T16:36:12.503Z,23.77
2023-05-06T16:38:39.823Z,23.76
2023-05-06T16:41:07.065Z,23.72
2023-05-06T16:43:33.720Z,23.56
2023-05-06T16:46:00.658Z,23.55
2023-05-06T16:48:28.032Z,23.68
2023-05-06T16:50:58.838Z,23.74
2023-05-06T16:53:27.707Z,23.75
2023-05-06T16:55:54.540Z,23.72
2023-05-06T16:58:21.957Z,23.55
2023-05-06T17:00:49.100Z,23.49
2023-05-06T17:03:17.633Z,23.49
2023-05-06T17:05:44.584Z,23.47
2023-05-06T17:08:12.027Z,23.38
2023-05-06T17:10:38.864Z,23.31
2023-05-06T17:13:06.096Z,23.15
2023-05-06T17:15:33.135Z,23.25
2023-05-06T17:18:01.397Z,23.31
2023-05-06T17:20:30.368Z,23.19
2023-05-06T17:22:58.201Z,23.26
2023-05-06T17:25:25.125Z,23.13
2023-05-06T17:27:52.132Z,23.12
2023-05-06T17:30:20.790Z,23.12
2023-05-06T17:32:47.602Z,23.05
2023-05-06T17:35:14.331Z,23.03
2023-05-06T17:37:41.190Z,23.02
2023-05-06T17:40:08.681Z,22.96
2023-05-06T17:42:35.545Z,22.92
2023-05-06T17:45:02.473Z,22.85
2023-05-06T17:47:32.924Z,22.59
2023-05-06T17:50:00.594Z,22.77
2023-05-06T17:52:27.431Z,22.70
2023-05-06T17:55:06.227Z,22.59
2023-05-06T17:57:38.245Z,22.48
2023-05-06T18:00:07.232Z,22.49
2023-05-06T18:02:39.090Z,22.38
2023-05-06T18:05:06.465Z,22.39
2023-05-06T18:07:35.040Z,22.29
2023-05-06T18:10:01.997Z,22.28
2023-05-06T18:12:32.113Z,22.22
2023-05-06T18:14:58.960Z,22.27
2023-05-06T18:17:25.726Z,22.20
2023-05-06T18:19:52.789Z,22.11
2023-05-06T18:22:19.754Z,22.15
2023-05-06T18:24:46.885Z,22.19
2023-05-06T18:27:14.256Z,22.12
2023-05-06T18:29:41.437Z,22.12
2023-05-06T18:32:08.783Z,22.06
2023-05-06T18:34:37.360Z,22.05
2023-05-06T18:37:04.689Z,22.08
2023-05-06T18:39:31.966Z,21.96
2023-05-06T18:41:59.207Z,22.00
2023-05-06T18:44:26.759Z,21.87
2023-05-06T18:46:53.449Z,21.80
2023-05-06T18:49:20.167Z,21.83
2023-05-06T18:51:46.792Z,21.75
2023-05-06T18:54:14.986Z,21.76
2023-05-06T18:56:43.640Z,21.59
2023-05-06T18:59:10.409Z,21.62
2023-05-06T19:01:37.329Z,21.61
2023-05-06T19:04:04.657Z,21.60
2023-05-06T19:06:34.582Z,21.53
2023-05-06T19:09:01.390Z,21.55
2023-05-06T19:11:28.126Z,21.56
2023-05-06T19:13:54.927Z,21.43
2023-05-06T19:16:21.908Z,21.48
2023-05-06T19:18:48.923Z,21.29
2023-05-06T19:21:15.847Z,21.34
2023-05-06T19:23:42.486Z,21.24
2023-05-06T19:26:11.203Z,21.26
2023-05-06T19:28:40.353Z,21.38
2023-05-06T19:31:10.718Z,21.28
2023-05-06T19:33:38.823Z,21.33
2023-05-06T19:36:06.611Z,21.23
2023-05-06T19:38:33.924Z,21.18
2023-05-06T19:41:01.084Z,21.17
2023-05-06T19:43:27.973Z,21.12
2023-05-06T19:45:54.753Z,21.14
2023-05-06T19:48:23.493Z,21.17
2023-05-06T19:50:51.778Z,21.10
2023-05-06T19:53:18.544Z,21.14
2023-05-06T19:55:45.774Z,21.02
2023-05-06T19:58:14.071Z,21.00
2023-05-06T20:00:40.887Z,21.10
2023-05-06T20:03:08.454Z,21.07
2023-05-06T20:05:35.454Z,21.01
2023-05-06T20:08:02.252Z,21.08
2023-05-06T20:10:29.255Z,21.00
2023-05-06T20:12:57.816Z,20.96
2023-05-06T20:15:26.818Z,21.01
2023-05-06T20:17:53.977Z,20.98
2023-05-06T20:20:21.327Z,20.89
2023-05-06T20:22:48.081Z,20.93
2023-05-06T20:25:17.306Z,20.98
2023-05-06T20:27:45.269Z,20.99
2023-05-06T20:30:12.534Z,20.96
2023-05-06T20:32:40.263Z,21.01
2023-05-06T20:35:07.764Z,20.97
2023-05-06T20:37:35.403Z,20.90
2023-05-06T20:40:04.754Z,20.86
2023-05-06T20:42:32.339Z,20.91
2023-05-06T20:45:00.188Z,20.88
2023-05-06T20:47:27.409Z,20.72
2023-05-06T20:49:55.638Z,20.75
2023-05-06T20:52:22.418Z,20.69
2023-05-06T20:54:49.493Z,20.70
2023-05-06T20:57:17.454Z,20.61
2023-05-06T20:59:44.403Z,20.68
2023-05-06T21:02:11.422Z,20.63
2023-05-06T21:04:38.357Z,20.54
2023-05-06T21:07:05.089Z,20.45
2023-05-06T21:09:31.803Z,20.48
2023-05-06T21:11:59.367Z,20.40
2023-05-06T21:14:27.601Z,20.41
2023-05-06T21:16:54.333Z,20.39
2023-05-06T21:19:21.160Z,20.45
2023-05-06T21:21:48.255Z,20.34
2023-05-06T21:24:15.455Z,20.33
2023-05-06T21:26:42.295Z,20.31
2023-05-06T21:29:09.103Z,20.35
2023-05-06T21:31:36.224Z,20.30
2023-05-06T21:34:07.265Z,20.23
2023-05-06T21:36:35.622Z,20.25
2023-05-06T21:39:08.135Z,20.26
2023-05-06T21:41:35.990Z,20.28
2023-05-06T21:44:04.110Z,20.31
2023-05-06T21:46:31.728Z,20.14
2023-05-06T21:48:59.175Z,20.31
2023-05-06T21:51:32.268Z,20.39
2023-05-06T21:53:59.283Z,20.27
2023-05-06T21:56:26.405Z,20.24
2023-05-06T21:58:55.737Z,20.23
2023-05-06T22:01:26.079Z,20.21
2023-05-06T22:03:53.931Z,20.06
2023-05-06T22:06:21.646Z,19.87
2023-05-06T22:08:48.439Z,19.79
2023-05-06T22:11:15.166Z,19.83
2023-05-06T22:13:42.361Z,19.76
2023-05-06T22:16:12.025Z,19.74
2023-05-06T22:18:41.239Z,19.76
2023-05-06T22:21:09.446Z,19.74
2023-05-06T22:23:36.345Z,19.48
2023-05-06T22:26:03.569Z,19.52
2023-05-06T22:28:30.628Z,19.66
2023-05-06T22:30:57.308Z,19.63
2023-05-06T22:33:25.690Z,19.55
2023-05-06T22:35:52.510Z,19.61
2023-05-06T22:38:19.192Z,19.63
2023-05-06T22:40:45.847Z,19.53
2023-05-06T22:43:12.567Z,19.53
2023-05-06T22:45:39.302Z,19.47
2023-05-06T22:48:06.265Z,19.41
2023-05-06T22:50:33.122Z,19.39
2023-05-06T22:53:04.916Z,19.39
2023-05-06T22:55:38.381Z,19.45
2023-05-06T22:58:05.185Z,19.44
2023-05-06T23:00:32.372Z,19.36
2023-05-06T23:02:59.098Z,19.41
2023-05-06T23:05:26.109Z,19.32
2023-05-06T23:07:52.789Z,19.39
2023-05-06T23:10:19.668Z,19.38
2023-05-06T23:12:48.348Z,19.32
2023-05-06T23:15:15.379Z,19.32
2023-05-06T23:17:42.312Z,19.34
2023-05-06T23:20:09.382Z,19.21
2023-05-06T23:22:36.201Z,19.17
2023-05-06T23:25:02.859Z,19.18
2023-05-06T23:27:31.394Z,19.12
2023-05-06T23:29:58.185Z,19.04
2023-05-06T23:32:24.911Z,19.10
2023-05-06T23:34:52.812Z,18.99
2023-05-06T23:37:19.747Z,19.01
2023-05-06T23:39:47.546Z,18.79
2023-05-06T23:42:14.266Z,18.80
2023-05-06T23:44:40.995Z,18.88
2023-05-06T23:47:07.697Z,19.05
2023-05-06T23:49:35.457Z,19.03
2023-05-06T23:52:02.246Z,19.03
2023-05-06T23:54:29.516Z,19.11
2023-05-06T23:56:56.354Z,19.12
2023-05-06T23:59:23.056Z,19.05
